Time;durP1;ratioP1;P1;durP2;ratioP2;P2;SDS_P1;SDS_P2;PMS_P1;PMS_P2;Temp;Humidity;BMP_temperature;BMP_pressure;BME280_temperature;BME280_humidity;BME280_pressure;Samples;Min_cycle;Max_cycle;Signal;HPM_P1;HPM_P2
2021/05/08 00:02:23;;;;;;;2.00;1.50;;;;;;;8.30;82.08;95408.25;1770533;81;21166;-62
2021/05/08 00:04:52;;;;;;;1.97;1.77;;;;;;;8.33;81.81;95410.83;1770514;81;21165;-62
2021/05/08 00:07:20;;;;;;;3.03;1.93;;;;;;;8.31;81.58;95408.66;1770630;81;21292;-62
2021/05/08 00:09:47;;;;;;;2.90;2.23;;;;;;;8.33;81.53;95402.95;1770566;81;21161;-62
2021/05/08 00:12:15;;;;;;;1.77;1.67;;;;;;;8.39;81.62;95411.67;1770443;81;21714;-62
2021/05/08 00:14:43;;;;;;;2.30;1.63;;;;;;;8.42;81.75;95402.88;1770798;81;21135;-62
2021/05/08 00:17:11;;;;;;;3.20;2.10;;;;;;;8.43;81.30;95413.34;1770616;81;21292;-62
2021/05/08 00:19:39;;;;;;;3.33;2.50;;;;;;;8.47;81.60;95415.92;1770317;81;21697;-62
2021/05/08 00:22:07;;;;;;;2.10;1.90;;;;;;;8.49;81.75;95406.27;1770557;81;21284;-62
2021/05/08 00:24:35;;;;;;;2.33;2.10;;;;;;;8.50;82.06;95402.31;1770473;81;21287;-62
2021/05/08 00:27:03;;;;;;;2.17;1.70;;;;;;;8.53;82.04;95413.23;1770363;81;21264;-62
2021/05/08 00:29:31;;;;;;;1.80;1.30;;;;;;;8.54;81.98;95408.39;1770902;81;21154;-62
2021/05/08 00:31:58;;;;;;;2.53;1.83;;;;;;;8.54;81.49;95412.33;1770731;81;21149;-62
2021/05/08 00:34:26;;;;;;;2.50;2.13;;;;;;;8.52;80.85;95416.31;1768546;81;21173;-62
2021/05/08 00:36:54;;;;;;;2.13;1.70;;;;;;;8.58;81.07;95415.36;1767435;81;21603;-62
2021/05/08 00:39:22;;;;;;;2.00;1.80;;;;;;;8.58;80.55;95410.96;1767549;81;21149;-62
2021/05/08 00:41:51;;;;;;;2.10;1.90;;;;;;;8.57;80.90;95419.75;1767267;81;21150;-62
2021/05/08 00:44:19;;;;;;;2.20;1.30;;;;;;;8.61;80.74;95429.32;1767395;81;21181;-62
2021/05/08 00:46:49;;;;;;;2.23;1.80;;;;;;;8.61;80.73;95428.45;1767482;81;21276;-62
2021/05/08 00:49:19;;;;;;;3.10;2.07;;;;;;;8.57;80.62;95427.64;1739806;81;21170;-62
2021/05/08 00:51:48;;;;;;;4.37;2.47;;;;;;;8.46;80.76;95432.16;1767381;81;21150;-62
2021/05/08 00:54:16;;;;;;;4.57;2.50;;;;;;;8.43;81.35;95437.46;1767585;81;21284;-62
2021/05/08 00:56:44;;;;;;;2.50;2.00;;;;;;;8.44;80.93;95441.40;1739671;81;21580;-62
2021/05/08 00:59:12;;;;;;;2.40;2.20;;;;;;;8.38;80.54;95455.02;1767355;81;21130;-62
2021/05/08 01:01:40;;;;;;;2.80;2.43;;;;;;;8.35;80.88;95462.50;1715169;81;21165;-62
2021/05/08 01:04:09;;;;;;;3.50;2.40;;;;;;;8.36;80.79;95469.48;1767343;81;21556;-62
2021/05/08 01:06:39;;;;;;;2.83;2.47;;;;;;;8.36;80.46;95471.25;1767366;81;21137;-62
2021/05/08 01:09:07;;;;;;;3.07;2.40;;;;;;;8.23;78.69;95473.16;1767338;81;21543;-62
2021/05/08 01:11:36;;;;;;;3.30;3.00;;;;;;;8.12;78.39;95482.94;1768035;81;21173;-62
2021/05/08 01:14:06;;;;;;;5.87;3.27;;;;;;;8.10;78.38;95492.13;1767383;81;21137;-62
2021/05/08 01:16:34;;;;;;;2.93;2.50;;;;;;;8.14;78.02;95508.31;1767375;81;21110;-62
2021/05/08 01:19:03;;;;;;;3.40;3.10;;;;;;;8.13;77.87;95502.61;1767537;81;21142;-62
2021/05/08 01:21:32;;;;;;;5.53;3.23;;;;;;;8.11;77.92;95516.65;1767510;81;21591;-62
2021/05/08 01:24:00;;;;;;;3.40;3.00;;;;;;;8.06;77.55;95521.08;1767236;81;21608;-62
2021/05/08 01:26:28;;;;;;;4.00;2.60;;;;;;;8.03;78.36;95525.92;1767349;81;21126;-62
2021/05/08 01:28:56;;;;;;;3.50;2.90;;;;;;;7.99;78.03;95533.43;1767400;81;21181;-62
2021/05/08 01:31:24;;;;;;;2.53;2.33;;;;;;;7.90;77.96;95536.13;1767153;81;21604;-62
2021/05/08 01:33:52;;;;;;;3.17;2.87;;;;;;;7.85;78.74;95533.98;1768222;81;21162;-62
2021/05/08 01:36:21;;;;;;;3.47;3.17;;;;;;;7.85;78.37;95539.24;1770605;81;21260;-62
2021/05/08 01:38:49;;;;;;;6.30;3.53;;;;;;;7.78;79.42;95538.41;1744849;81;21157;-62
2021/05/08 01:41:17;;;;;;;3.67;3.30;;;;;;;7.79;78.84;95538.86;1770588;81;21268;-62
2021/05/08 01:43:45;;;;;;;3.20;2.77;;;;;;;7.78;78.64;95541.04;1770775;81;21162;-62
2021/05/08 01:46:14;;;;;;;3.20;1.93;;;;;;;7.78;78.41;95539.28;1770573;81;21557;-62
2021/05/08 01:48:43;;;;;;;4.43;3.90;;;;;;;7.75;78.01;95541.94;1770568;81;21272;-62
2021/05/08 01:51:11;;;;;;;4.17;3.73;;;;;;;7.74;78.62;95564.30;1770688;81;21154;-62
2021/05/08 01:53:40;;;;;;;2.73;2.37;;;;;;;7.76;78.74;95587.03;1770899;81;21122;-62
2021/05/08 01:56:09;;;;;;;2.90;2.10;;;;;;;7.67;76.90;95593.66;1770606;81;21308;-62
2021/05/08 01:58:36;;;;;;;2.10;1.90;;;;;;;7.45;75.59;95604.74;1770491;81;21137;-62
2021/05/08 02:01:06;;;;;;;2.70;1.90;;;;;;;7.27;74.97;95606.17;1770762;81;21624;-62
2021/05/08 02:03:35;;;;;;;2.93;2.10;;;;;;;6.98;74.71;95625.98;1770097;81;21126;-62
2021/05/08 02:06:04;;;;;;;5.13;2.00;;;;;;;6.80;75.05;95627.80;1770601;81;21710;-62
2021/05/08 02:08:38;;;;;;;4.07;2.10;;;;;;;6.56;75.12;95621.34;1770233;81;21276;-62
2021/05/08 02:11:07;;;;;;;2.80;2.00;;;;;;;6.42;75.25;95630.53;1770530;81;21154;-62
2021/05/08 02:13:37;;;;;;;2.63;2.00;;;;;;;6.20;75.33;95640.16;1770725;81;21144;-62
2021/05/08 02:16:05;;;;;;;3.20;2.03;;;;;;;6.05;75.81;95648.48;1770466;81;21153;-62
2021/05/08 02:18:34;;;;;;;2.40;1.90;;;;;;;5.98;76.12;95665.51;1770692;81;21287;-62
2021/05/08 02:21:02;;;;;;;2.63;1.53;;;;;;;5.93;76.73;95665.47;1770676;81;21268;-62
2021/05/08 02:23:30;;;;;;;1.40;1.30;;;;;;;5.88;76.07;95666.34;1770839;81;21153;-62
2021/05/08 02:25:58;;;;;;;2.43;1.83;;;;;;;5.79;75.88;95673.73;1770546;81;21283;-62
2021/05/08 02:28:26;;;;;;;1.70;1.47;;;;;;;5.74;76.36;95676.34;1770675;81;21746;-62
2021/05/08 02:30:54;;;;;;;2.40;1.63;;;;;;;5.63;75.96;95680.27;1744536;81;21149;-62
2021/05/08 02:33:26;;;;;;;1.83;1.50;;;;;;;5.60;75.98;95675.03;1770334;81;21133;-62
2021/05/08 02:35:54;;;;;;;1.83;1.50;;;;;;;5.55;75.87;95679.38;1773092;81;21574;-62
2021/05/08 02:38:22;;;;;;;2.50;1.80;;;;;;;5.51;75.68;95676.75;1773017;81;21593;-62
2021/05/08 02:40:51;;;;;;;3.30;1.63;;;;;;;5.53;75.86;95684.17;1772839;81;21548;-62
2021/05/08 02:43:19;;;;;;;2.37;1.63;;;;;;;5.53;76.49;95691.59;1747010;81;21166;-62
2021/05/08 02:45:48;;;;;;;1.27;1.00;;;;;;;5.56;76.96;95699.88;1772492;81;21137;-62
2021/05/08 02:48:16;;;;;;;1.90;1.40;;;;;;;5.61;76.44;95708.17;1772891;81;21173;-62
2021/05/08 02:50:46;;;;;;;4.63;1.50;;;;;;;5.56;76.04;95715.14;1772219;81;21587;-62
2021/05/08 02:53:14;;;;;;;1.67;1.03;;;;;;;5.54;75.61;95716.01;1773086;81;21169;-62
2021/05/08 02:55:41;;;;;;;1.73;1.30;;;;;;;5.57;75.58;95718.66;1772883;81;21110;-62
2021/05/08 02:58:10;;;;;;;1.87;1.43;;;;;;;5.57;75.80;95719.97;1773281;81;21295;-62
2021/05/08 03:00:40;;;;;;;2.17;1.50;;;;;;;5.56;76.83;95726.05;1772990;81;21126;-63
2021/05/08 03:03:10;;;;;;;1.37;1.27;;;;;;;5.52;76.10;95722.56;1772758;81;21122;-62
2021/05/08 03:05:38;;;;;;;1.87;1.60;;;;;;;5.58;75.78;95732.17;1773356;81;21291;-62
2021/05/08 03:08:08;;;;;;;1.80;1.20;;;;;;;5.57;74.87;95727.82;1771395;81;21150;-62
2021/05/08 03:10:36;;;;;;;4.03;1.60;;;;;;;5.57;74.88;95730.44;1773022;81;21094;-62
2021/05/08 03:13:04;;;;;;;2.90;1.70;;;;;;;5.57;75.71;95736.54;1772958;81;21117;-62
2021/05/08 03:15:31;;;;;;;2.03;1.50;;;;;;;5.56;75.33;95737.83;1772948;81;21161;-62
2021/05/08 03:18:00;;;;;;;1.70;1.40;;;;;;;5.52;75.22;95727.80;1772962;81;21654;-62
2021/05/08 03:20:28;;;;;;;2.17;1.70;;;;;;;5.46;75.56;95740.84;1773122;81;21126;-62
2021/05/08 03:22:56;;;;;;;2.13;1.50;;;;;;;5.42;74.99;95745.20;1772816;81;21141;-62
2021/05/08 03:25:24;;;;;;;2.83;1.30;;;;;;;5.40;74.59;95747.37;1773168;81;21158;-62
2021/05/08 03:27:53;;;;;;;3.23;1.70;;;;;;;5.41;74.68;95747.36;1773086;81;21106;-62
2021/05/08 03:30:22;;;;;;;1.70;1.47;;;;;;;5.38;74.82;95752.59;1772977;81;21145;-62
2021/05/08 03:32:52;;;;;;;1.33;1.20;;;;;;;5.32;73.88;95753.89;1772682;81;21150;-62
2021/05/08 03:35:20;;;;;;;2.27;1.50;;;;;;;5.29;74.28;95760.42;1771557;81;21186;-62
2021/05/08 03:37:48;;;;;;;3.53;1.93;;;;;;;5.27;73.59;95766.08;1770490;81;21185;-62
2021/05/08 03:40:16;;;;;;;1.97;1.37;;;;;;;5.26;74.02;95761.70;1770682;81;21595;-62
2021/05/08 03:42:45;;;;;;;2.10;1.90;;;;;;;5.26;73.34;95766.92;1770502;81;21292;-62
2021/05/08 03:45:14;;;;;;;3.40;1.83;;;;;;;5.32;73.25;95773.52;1770449;81;21283;-62
2021/05/08 03:47:41;;;;;;;4.03;3.27;;;;;;;5.29;71.77;95779.15;1770565;81;21295;-62
2021/05/08 03:50:09;;;;;;;3.43;2.17;;;;;;;5.35;72.44;95779.20;1770510;81;21710;-62
2021/05/08 03:52:37;;;;;;;2.20;1.63;;;;;;;5.27;71.77;95788.76;1770664;81;21698;-62
2021/05/08 03:55:06;;;;;;;2.53;2.33;;;;;;;5.30;73.08;95795.30;1770551;81;21303;-62
2021/05/08 03:57:34;;;;;;;3.43;3.10;;;;;;;5.39;73.21;95793.61;1770423;81;21137;-62
2021/05/08 04:00:03;;;;;;;10.87;9.47;;;;;;;5.46;72.89;95798.42;1770519;81;21181;-62
2021/05/08 04:02:33;;;;;;;2.50;2.20;;;;;;;5.51;72.96;95805.86;1769600;81;21122;-62
2021/05/08 04:05:00;;;;;;;2.23;1.53;;;;;;;5.52;71.85;95808.03;1770893;81;21583;-62
2021/05/08 04:07:28;;;;;;;3.63;2.67;;;;;;;5.49;71.26;95798.87;1770867;81;21141;-62
2021/05/08 04:09:56;;;;;;;2.80;1.70;;;;;;;5.51;71.09;95807.16;1745214;81;21541;-62
2021/05/08 04:12:23;;;;;;;1.77;1.50;;;;;;;5.56;71.42;95810.67;1744840;81;21161;-62
2021/05/08 04:14:51;;;;;;;3.07;2.20;;;;;;;5.47;68.42;95805.83;1770805;81;21726;-62
2021/05/08 04:17:19;;;;;;;3.53;2.20;;;;;;;5.43;69.08;95812.36;1770543;81;21284;-62
2021/05/08 04:19:47;;;;;;;2.17;1.37;;;;;;;5.46;68.58;95811.50;1770571;81;21280;-62
2021/05/08 04:22:15;;;;;;;2.77;2.03;;;;;;;5.40;67.35;95812.36;1770756;81;21268;-62
2021/05/08 04:24:42;;;;;;;2.20;1.90;;;;;;;5.40;68.09;95826.75;1770630;81;21284;-62
2021/05/08 04:27:10;;;;;;;3.23;1.90;;;;;;;5.42;67.77;95824.16;1770541;81;21193;-62
2021/05/08 04:29:37;;;;;;;2.93;1.87;;;;;;;5.42;67.22;95838.11;1770710;81;21157;-62
2021/05/08 04:32:05;;;;;;;2.87;2.13;;;;;;;5.37;66.66;95830.66;1770652;81;21122;-63
2021/05/08 04:34:33;;;;;;;3.07;1.60;;;;;;;5.36;66.06;95831.52;1769962;81;21730;-62
2021/05/08 04:37:02;;;;;;;3.47;2.30;;;;;;;5.31;67.29;95845.45;1767120;81;21102;-62
2021/05/08 04:39:30;;;;;;;4.33;2.20;;;;;;;5.30;67.04;95841.96;1767407;81;21107;-62
2021/05/08 04:41:57;;;;;;;1.80;1.70;;;;;;;5.26;66.14;95849.34;1767680;81;21273;-62
2021/05/08 04:44:25;;;;;;;2.40;1.90;;;;;;;5.19;65.40;95852.37;1767429;81;21277;-62
2021/05/08 04:46:52;;;;;;;3.07;2.00;;;;;;;5.14;66.21;95860.62;1767280;81;21161;-62
2021/05/08 04:49:21;;;;;;;2.40;2.20;;;;;;;5.06;66.11;95856.19;1767291;81;21142;-62
2021/05/08 04:51:48;;;;;;;5.63;1.80;;;;;;;5.06;66.92;95855.74;1767443;81;21189;-62
2021/05/08 04:54:16;;;;;;;4.27;2.40;;;;;;;5.04;66.00;95858.81;1767387;81;21153;-62
2021/05/08 04:56:43;;;;;;;4.90;2.43;;;;;;;5.05;66.06;95869.70;1739590;81;21568;-62
2021/05/08 04:59:11;;;;;;;2.57;2.30;;;;;;;5.05;65.71;95867.08;1767386;81;21169;-62
2021/05/08 05:01:38;;;;;;;5.07;2.40;;;;;;;5.08;66.02;95871.46;1767234;81;21153;-62
2021/05/08 05:04:06;;;;;;;3.97;2.00;;;;;;;5.14;65.52;95872.80;1767643;81;21271;-62
2021/05/08 05:06:34;;;;;;;3.40;1.90;;;;;;;5.20;65.80;95876.78;1767337;81;21580;-62
2021/05/08 05:09:02;;;;;;;2.50;1.70;;;;;;;5.26;65.63;95880.73;1767067;81;21165;-62
2021/05/08 05:11:30;;;;;;;1.80;1.60;;;;;;;5.36;65.90;95884.28;1767413;81;21189;-62
2021/05/08 05:13:57;;;;;;;3.13;2.60;;;;;;;5.48;66.55;95884.80;1767608;81;21232;-62
2021/05/08 05:16:26;;;;;;;2.77;2.20;;;;;;;5.53;65.86;95890.50;1767559;81;21248;-62
2021/05/08 05:18:54;;;;;;;3.20;2.57;;;;;;;5.46;64.70;95894.38;1767509;81;21299;-62
2021/05/08 05:21:22;;;;;;;3.07;2.17;;;;;;;5.40;64.64;95897.84;1767461;81;21256;-62
2021/05/08 05:23:50;;;;;;;3.77;2.70;;;;;;;5.33;64.30;95897.36;1767356;81;21141;-62
2021/05/08 05:26:17;;;;;;;4.97;2.60;;;;;;;5.36;65.16;95891.70;1767406;81;21153;-62
2021/05/08 05:28:45;;;;;;;4.20;2.20;;;;;;;5.42;64.31;95890.44;1767649;81;21284;-62
2021/05/08 05:31:13;;;;;;;3.10;2.23;;;;;;;5.59;64.06;95892.27;1767476;81;21592;-62
2021/05/08 05:33:41;;;;;;;3.70;2.60;;;;;;;5.76;65.19;95891.05;1767380;81;21252;-62
2021/05/08 05:36:09;;;;;;;2.73;2.23;;;;;;;5.95;65.35;95898.61;1769785;81;21179;-62
2021/05/08 05:38:36;;;;;;;4.17;2.70;;;;;;;6.12;66.08;95886.86;1770622;81;21261;-62
2021/05/08 05:41:04;;;;;;;4.33;3.20;;;;;;;6.28;65.72;95888.23;1770592;81;21272;-62
2021/05/08 05:43:32;;;;;;;3.93;2.53;;;;;;;6.43;65.25;95884.77;1770685;81;21608;-62
2021/05/08 05:45:59;;;;;;;2.83;2.00;;;;;;;6.48;64.99;95893.52;1770576;81;21150;-62
2021/05/08 05:48:27;;;;;;;3.33;2.60;;;;;;;6.55;63.27;95889.59;1770896;81;21170;-62
2021/05/08 05:50:55;;;;;;;4.93;2.90;;;;;;;6.66;65.47;95899.67;1770403;81;21177;-62
2021/05/08 05:53:22;;;;;;;2.40;2.13;;;;;;;6.78;63.05;95901.41;1770554;81;21718;-62
2021/05/08 05:55:50;;;;;;;3.67;2.50;;;;;;;6.83;63.76;95896.64;1770978;81;21469;-62
2021/05/08 05:58:17;;;;;;;3.33;1.80;;;;;;;6.87;60.08;95895.74;1770520;81;21161;-62
2021/05/08 06:00:46;;;;;;;2.80;1.70;;;;;;;6.82;56.57;95884.38;1770603;81;21142;-62
2021/05/08 06:03:16;;;;;;;2.53;1.80;;;;;;;6.82;56.92;95894.87;1770445;81;21282;-63
2021/05/08 06:05:44;;;;;;;1.30;0.97;;;;;;;6.86;57.69;95903.19;1770635;81;21694;-62
2021/05/08 06:08:12;;;;;;;2.10;1.90;;;;;;;6.84;54.14;95897.06;1770863;81;21110;-62
2021/05/08 06:10:40;;;;;;;3.73;1.80;;;;;;;6.88;56.43;95904.52;1770564;81;21160;-62
2021/05/08 06:13:07;;;;;;;1.50;1.20;;;;;;;6.91;56.60;95907.13;1770591;81;21130;-62
2021/05/08 06:15:35;;;;;;;3.00;1.13;;;;;;;6.95;52.99;95915.42;1771050;81;21125;-62
2021/05/08 06:18:03;;;;;;;4.07;2.00;;;;;;;6.94;51.52;95917.62;1770337;81;21279;-62
2021/05/08 06:20:31;;;;;;;2.07;1.43;;;;;;;7.08;54.53;95921.13;1770792;81;21189;-62
2021/05/08 06:22:59;;;;;;;3.43;1.63;;;;;;;7.12;53.28;95932.05;1770646;81;21706;-62
2021/05/08 06:25:27;;;;;;;5.63;1.40;;;;;;;7.19;52.42;95935.56;1770512;81;21141;-62
2021/05/08 06:27:55;;;;;;;1.43;1.33;;;;;;;7.12;51.22;95946.48;1770658;81;21150;-62
2021/05/08 06:30:22;;;;;;;3.27;1.80;;;;;;;7.08;50.40;95934.66;1770515;81;21702;-62
2021/05/08 06:32:50;;;;;;;1.80;1.37;;;;;;;7.09;51.50;95942.55;1770552;81;21141;-62
2021/05/08 06:35:17;;;;;;;3.27;1.63;;;;;;;7.16;51.42;95943.44;1769609;81;21313;-62
2021/05/08 06:37:50;;;;;;;1.90;1.57;;;;;;;7.24;51.69;95939.50;1767478;81;21264;-62
2021/05/08 06:40:18;;;;;;;2.77;1.95;;;;;;;7.38;51.85;95942.97;1767603;81;21129;-62
2021/05/08 06:42:45;;;;;;;3.10;1.90;;;;;;;7.35;50.39;95938.60;1767290;81;21134;-62
2021/05/08 06:45:13;;;;;;;2.27;1.73;;;;;;;7.34;51.56;95944.73;1767714;81;21271;-62
2021/05/08 06:47:41;;;;;;;2.30;1.60;;;;;;;7.39;51.01;95934.69;1767236;81;21616;-62
2021/05/08 06:50:10;;;;;;;2.80;1.77;;;;;;;7.37;51.33;95936.86;1767260;81;21134;-62
2021/05/08 06:52:38;;;;;;;3.07;1.83;;;;;;;7.39;50.93;95941.25;1767299;81;21568;-62
2021/05/08 06:55:07;;;;;;;2.53;2.03;;;;;;;7.47;53.12;95935.55;1767859;81;21659;-62
2021/05/08 06:57:34;;;;;;;4.67;2.17;;;;;;;7.65;52.84;95936.82;1767286;81;21130;-62
2021/05/08 07:00:04;;;;;;;1.80;1.50;;;;;;;7.66;51.40;95939.91;1739304;81;21161;-62
2021/05/08 07:02:31;;;;;;;3.03;2.00;;;;;;;7.69;53.03;95943.83;1739327;81;21154;-62
2021/05/08 07:04:59;;;;;;;2.23;1.90;;;;;;;7.67;50.73;95942.95;1767336;81;21130;-62
2021/05/08 07:07:28;;;;;;;2.13;1.83;;;;;;;7.71;51.07;95946.44;1767300;81;21615;-62
2021/05/08 07:09:56;;;;;;;2.93;1.67;;;;;;;7.86;51.64;95950.78;1767293;81;21133;-62
2021/05/08 07:12:24;;;;;;;2.27;1.73;;;;;;;7.92;50.48;95950.79;1767278;81;21106;-62
2021/05/08 07:14:51;;;;;;;2.17;1.97;;;;;;;7.88;49.73;95949.03;1767279;81;21149;-62
2021/05/08 07:17:19;;;;;;;2.50;1.80;;;;;;;7.89;50.49;95944.23;1767487;81;21276;-63
2021/05/08 07:19:48;;;;;;;2.80;2.53;;;;;;;7.96;51.80;95940.69;1767203;81;21597;-62
2021/05/08 07:22:15;;;;;;;4.03;2.40;;;;;;;7.99;50.60;95942.02;1767357;81;21130;-62
2021/05/08 07:24:43;;;;;;;2.40;1.90;;;;;;;7.97;51.22;95947.70;1767358;81;21141;-62
2021/05/08 07:27:11;;;;;;;3.40;2.07;;;;;;;8.06;52.55;95954.67;1767338;81;21138;-62
2021/05/08 07:29:38;;;;;;;2.90;1.93;;;;;;;8.14;51.86;95959.05;1767263;81;21162;-62
2021/05/08 07:32:07;;;;;;;4.47;2.10;;;;;;;8.20;51.23;95956.38;1767271;81;21572;-62
2021/05/08 07:34:35;;;;;;;2.20;1.80;;;;;;;8.33;49.70;95954.58;1767155;81;21603;-62
2021/05/08 07:37:02;;;;;;;4.07;2.20;;;;;;;8.41;52.07;95957.20;1770260;81;21284;-62
2021/05/08 07:39:30;;;;;;;3.33;2.00;;;;;;;8.33;50.51;95958.97;1770493;81;21172;-62
2021/05/08 07:41:58;;;;;;;3.03;2.17;;;;;;;8.41;50.73;95958.52;1770393;81;21275;-62
2021/05/08 07:44:25;;;;;;;2.20;1.87;;;;;;;8.59;50.56;95959.77;1770594;81;21709;-62
2021/05/08 07:46:53;;;;;;;2.47;2.00;;;;;;;8.68;51.73;95962.78;1770754;81;21141;-62
2021/05/08 07:49:21;;;;;;;4.33;2.13;;;;;;;8.52;51.07;95963.76;1770286;81;21176;-62
2021/05/08 07:51:49;;;;;;;16.83;7.67;;;;;;;8.62;50.64;95962.83;1770803;81;21304;-62
2021/05/08 07:54:17;;;;;;;7.57;3.90;;;;;;;8.77;52.08;95965.79;1770513;81;21268;-62
2021/05/08 07:56:44;;;;;;;3.80;2.57;;;;;;;9.00;50.00;95963.91;1770529;81;21288;-62
2021/05/08 07:59:12;;;;;;;17.03;7.73;;;;;;;9.11;50.47;95965.15;1770430;81;21651;-62
2021/05/08 08:01:40;;;;;;;5.10;2.67;;;;;;;9.41;50.10;95965.81;1770472;81;21137;-62
2021/05/08 08:04:09;;;;;;;3.67;2.80;;;;;;;9.44;50.71;95969.73;1744941;81;21536;-62
2021/05/08 08:06:37;;;;;;;21.53;10.27;;;;;;;9.31;50.72;95973.77;1770535;81;21319;-62
2021/05/08 08:09:05;;;;;;;12.37;7.40;;;;;;;9.19;50.56;95984.39;1770792;81;21137;-62
2021/05/08 08:11:33;;;;;;;12.37;6.13;;;;;;;9.46;49.16;95974.09;1770595;81;21311;-62
2021/05/08 08:14:00;;;;;;;12.47;6.30;;;;;;;9.67;47.25;95974.80;1770721;81;21304;-62
2021/05/08 08:16:30;;;;;;;4.17;3.57;;;;;;;9.88;48.20;95981.20;1770508;81;21291;-62
2021/05/08 08:18:58;;;;;;;9.03;5.57;;;;;;;9.89;45.01;95986.89;1770548;81;21687;-62
2021/05/08 08:21:25;;;;;;;4.90;3.23;;;;;;;9.94;48.47;95985.08;1770650;81;21280;-62
2021/05/08 08:23:53;;;;;;;6.40;4.10;;;;;;;10.19;45.38;95978.24;1744395;81;21142;-62
2021/05/08 08:26:21;;;;;;;5.63;4.30;;;;;;;10.14;46.07;95984.02;1770589;81;21150;-62
2021/05/08 08:28:48;;;;;;;7.43;5.70;;;;;;;9.82;45.08;95990.47;1770481;81;21280;-62
2021/05/08 08:31:16;;;;;;;9.33;6.60;;;;;;;9.77;47.45;95989.63;1770580;81;21584;-62
2021/05/08 08:33:44;;;;;;;4.57;2.33;;;;;;;9.79;46.86;95991.81;1770586;81;21279;-62
2021/05/08 08:36:13;;;;;;;8.77;5.90;;;;;;;10.09;46.89;95989.78;1769267;81;21174;-62
2021/05/08 08:38:40;;;;;;;4.33;2.30;;;;;;;10.33;44.02;95989.97;1767203;81;21192;-62
2021/05/08 08:41:08;;;;;;;7.80;6.33;;;;;;;10.56;46.20;95982.69;1739575;81;21114;-62
2021/05/08 08:43:36;;;;;;;5.17;3.30;;;;;;;10.94;45.24;95988.36;1739587;81;21162;-62
2021/05/08 08:46:06;;;;;;;5.13;3.80;;;;;;;11.12;44.44;95985.91;1767201;81;21572;-62
2021/05/08 08:48:33;;;;;;;3.40;2.37;;;;;;;11.20;44.28;95984.02;1767323;81;21114;-62
2021/05/08 08:51:01;;;;;;;4.80;3.50;;;;;;;11.33;45.29;95986.03;1767307;81;21126;-62
2021/05/08 08:53:29;;;;;;;4.07;3.30;;;;;;;11.66;46.23;95985.48;1767551;81;21276;-62
2021/05/08 08:55:58;;;;;;;2.00;1.53;;;;;;;11.99;41.97;95988.93;1767389;81;21126;-62
2021/05/08 08:58:35;;;;;;;4.87;3.17;;;;;;;11.99;43.04;95996.41;1767478;81;21146;-62
2021/05/08 09:01:05;;;;;;;2.70;2.07;;;;;;;12.00;38.81;95990.70;1767350;81;21121;-63
2021/05/08 09:03:33;;;;;;;8.30;4.57;;;;;;;12.11;41.05;95986.94;1767230;81;21154;-62
2021/05/08 09:06:03;;;;;;;4.50;2.47;;;;;;;12.09;40.29;95998.44;1767275;81;21216;-62
2021/05/08 09:08:31;;;;;;;3.33;2.17;;;;;;;12.31;41.73;95998.93;1767542;81;21173;-62
2021/05/08 09:11:24;;;;;;;2.23;1.80;;;;;;;12.63;39.74;96007.58;1767416;81;21260;-62
2021/05/08 09:14:23;;;;;;;9.63;4.07;;;;;;;12.49;38.01;96004.31;1767534;81;21698;-62
2021/05/08 09:17:08;;;;;;;2.53;1.90;;;;;;;12.62;39.24;96011.10;1767379;81;21133;-62
2021/05/08 09:19:49;;;;;;;2.87;2.10;;;;;;;12.85;38.02;96003.14;1767116;81;21130;-62
2021/05/08 09:22:31;;;;;;;2.30;2.07;;;;;;;12.86;40.28;96016.83;1767325;81;21577;-62
2021/05/08 09:25:17;;;;;;;2.00;1.70;;;;;;;12.92;40.64;96013.58;1767379;81;21133;-62
2021/05/08 09:27:50;;;;;;;1.83;1.67;;;;;;;13.02;41.11;96017.37;1767449;81;21129;-62
2021/05/08 09:30:23;;;;;;;;;;;;;;;12.87;39.95;96018.09;1770148;81;21272;-62
2021/05/08 09:32:59;;;;;;;4.63;2.47;;;;;;;12.41;38.57;96020.34;1767544;81;20140;-62
2021/05/08 09:35:35;;;;;;;2.83;2.20;;;;;;;12.33;38.55;96020.95;1767312;81;21537;-62
2021/05/08 09:38:13;;;;;;;2.83;2.30;;;;;;;12.31;39.41;96020.09;1767533;81;21098;-62
2021/05/08 09:40:48;;;;;;;2.00;1.70;;;;;;;12.03;39.79;96021.05;1767751;81;21141;-62
2021/05/08 09:43:20;;;;;;;3.03;1.90;;;;;;;11.77;41.73;96021.44;1767394;81;21125;-62
2021/05/08 09:45:53;;;;;;;2.85;1.82;;;;;;;11.76;38.33;96021.89;1767576;81;21129;-62
2021/05/08 09:48:32;;;;;;;3.63;2.40;;;;;;;11.92;43.57;96027.85;1767137;81;21130;-62
2021/05/08 09:51:26;;;;;;;2.20;1.90;;;;;;;12.37;39.77;96019.97;1763379;81;21272;-62
2021/05/08 09:54:13;;;;;;;3.33;1.65;;;;;;;12.29;38.80;96031.16;1767573;81;21552;-62
2021/05/08 09:56:50;;;;;;;2.43;2.20;;;;;;;12.39;43.45;96030.08;1767320;81;21170;-62
2021/05/08 09:59:35;;;;;;;3.00;2.67;;;;;;;12.38;39.38;96031.45;1767592;81;21261;-62
2021/05/08 10:02:09;;;;;;;1.83;1.70;;;;;;;12.76;38.97;96038.64;1767297;81;21118;-62
2021/05/08 10:04:45;;;;;;;3.80;1.80;;;;;;;12.99;38.97;96029.77;1767301;81;21149;-62
2021/05/08 10:07:22;;;;;;;2.33;1.90;;;;;;;13.31;38.79;96030.03;1767346;81;21150;-62
2021/05/08 10:09:57;;;;;;;1.60;1.50;;;;;;;13.58;38.06;96033.38;1767238;81;21122;-62
2021/05/08 10:12:27;;;;;;;2.27;2.08;;;;;;;13.81;39.63;96027.98;1767809;81;21296;-62
2021/05/08 10:14:58;;;;;;;2.40;1.60;;;;;;;13.57;34.89;96030.28;1767603;81;21537;-62
2021/05/08 10:17:28;;;;;;;3.00;1.87;;;;;;;13.55;36.46;96034.74;1767475;81;21121;-62
2021/05/08 10:20:09;;;;;;;5.20;3.03;;;;;;;13.74;37.92;96033.88;1767138;81;21612;-62
2021/05/08 10:22:57;;;;;;;3.20;1.50;;;;;;;13.78;34.89;96034.66;1767531;81;21707;-62
2021/05/08 10:25:27;;;;;;;2.80;1.47;;;;;;;13.60;37.31;96040.81;1763172;81;21142;-62
2021/05/08 10:27:56;;;;;;;1.90;1.60;;;;;;;13.60;36.53;96034.64;1767329;81;21134;-62
2021/05/08 10:30:33;;;;;;;2.10;1.50;;;;;;;13.27;35.87;96038.94;1767203;81;21138;-62
2021/05/08 10:33:14;;;;;;;3.10;1.63;;;;;;;12.88;38.36;96035.75;1767470;81;21157;-62
2021/05/08 10:35:53;;;;;;;7.07;5.03;;;;;;;13.28;38.46;96037.59;1767308;81;21568;-62
2021/05/08 10:38:36;;;;;;;2.20;1.33;;;;;;;13.60;36.87;96031.53;1767194;81;21166;-62
2021/05/08 10:41:11;;;;;;;1.70;1.60;;;;;;;13.76;38.10;96036.05;1767182;81;21588;-62
2021/05/08 10:43:58;;;;;;;1.93;1.50;;;;;;;13.86;36.92;96035.37;1767192;81;21129;-62
2021/05/08 10:46:27;;;;;;;3.10;1.53;;;;;;;13.39;35.25;96041.32;1766768;81;21126;-62
2021/05/08 10:49:12;;;;;;;1.63;1.40;;;;;;;12.71;35.33;96045.81;1767424;81;21552;-62
2021/05/08 10:51:59;;;;;;;2.60;1.27;;;;;;;12.31;39.07;96047.88;1767201;81;21103;-62
2021/05/08 10:54:45;;;;;;;2.10;1.80;;;;;;;12.87;44.73;96044.58;1767256;81;21561;-62
2021/05/08 10:57:23;;;;;;;2.40;1.50;;;;;;;13.55;38.85;96036.07;1767290;81;21137;-62
2021/05/08 11:00:12;;;;;;;2.53;1.50;;;;;;;13.42;37.85;96040.78;1767229;81;21129;-62
2021/05/08 11:02:46;;;;;;;2.37;1.60;;;;;;;13.27;38.49;96041.59;1767298;81;21659;-62
2021/05/08 11:05:28;;;;;;;1.77;1.40;;;;;;;13.60;35.62;96043.47;1767008;81;21576;-62
2021/05/08 11:07:56;;;;;;;1.70;1.60;;;;;;;13.91;37.59;96038.78;1767294;81;21110;-62
2021/05/08 11:10:36;;;;;;;2.33;1.50;;;;;;;14.05;38.57;96041.94;1767464;81;21153;-62
2021/05/08 11:13:14;;;;;;;1.93;1.30;;;;;;;13.82;34.84;96045.63;1762810;81;21157;-62
2021/05/08 11:15:58;;;;;;;3.17;1.60;;;;;;;13.88;35.58;96036.64;1767466;81;21134;-62
2021/05/08 11:18:42;;;;;;;3.53;1.97;;;;;;;14.13;36.50;96036.44;1767565;81;21276;-62
2021/05/08 11:21:16;;;;;;;2.33;1.70;;;;;;;13.73;35.01;96046.70;1767133;81;21138;-62
2021/05/08 11:23:47;;;;;;;2.47;1.70;;;;;;;13.26;36.19;96045.98;1767226;81;21118;-62
2021/05/08 11:26:29;;;;;;;1.30;0.97;;;;;;;13.31;36.63;96047.25;1767212;81;21091;-62
2021/05/08 11:29:17;;;;;;;1.57;1.47;;;;;;;13.13;35.83;96045.84;1767928;81;21272;-62
2021/05/08 11:31:54;;;;;;;2.47;1.70;;;;;;;12.91;35.68;96054.22;1767017;81;21261;-62
2021/05/08 11:34:30;;;;;;;1.37;1.23;;;;;;;13.06;35.33;96044.22;1767304;81;21565;-62
2021/05/08 11:37:11;;;;;;;2.10;1.47;;;;;;;13.24;36.29;96038.52;1768580;81;21259;-62
2021/05/08 11:39:46;;;;;;;4.97;3.10;;;;;;;13.30;37.75;96046.36;1770521;81;21138;-62
2021/05/08 11:42:19;;;;;;;2.80;1.97;;;;;;;13.14;37.26;96040.95;1770462;81;21264;-62
2021/05/08 11:45:00;;;;;;;2.30;1.80;;;;;;;12.91;37.63;96048.92;1770525;81;21129;-62
2021/05/08 11:47:34;;;;;;;7.63;4.47;;;;;;;13.13;36.08;96052.01;1770471;81;21099;-62
2021/05/08 11:50:06;;;;;;;4.10;1.90;;;;;;;13.10;36.65;96048.53;1770408;81;21256;-62
2021/05/08 11:52:49;;;;;;;5.40;4.17;;;;;;;13.19;37.82;96049.21;1770683;81;21739;-62
2021/05/08 11:55:26;;;;;;;8.87;5.20;;;;;;;14.10;36.92;96047.59;1770634;81;21268;-62